This is the latest recevied weather packets stored in our database for station/object PP5ABU-13. If no packets are shown the sender has not sent any weather packets the latest 10 day(s).
| Time | Temp. | Humidity | Pressure | Rain* | Wind** | Luminosity | Snow |
|---|---|---|---|---|---|---|---|
| 1777752004 | 22.22° C | 90% | 1013.3 hPa | 0 mm | - | - | - |
| 1777751105 | 22.78° C | 87% | 1012.7 hPa | 0 mm | - | - | - |
| 1777750204 | 23.33° C | 86% | 1012.5 hPa | 0 mm | - | - | - |
| 1777749304 | 23.89° C | 84% | 1012.2 hPa | 0 mm | - | - | - |
| 1777748404 | 23.89° C | 84% | 1011.6 hPa | 0 mm | - | - | - |
| 1777747504 | 23.89° C | 84% | 1011.7 hPa | 0 mm | - | - | - |
| 1777746604 | 23.89° C | 83% | 1011.9 hPa | 0 mm | - | - | - |
| 1777745704 | 24.44° C | 84% | 1011.9 hPa | 0 mm | - | - | - |
| 1777744805 | 24.44° C | 87% | 1011.6 hPa | 0 mm | - | - | - |
| 1777743904 | 23.89° C | 88% | 1011.4 hPa | 0 mm | - | - | - |
| 1777743004 | 23.89° C | 87% | 1011.5 hPa | 0 mm | - | - | - |
| 1777742104 | 23.89° C | 85% | 1011.3 hPa | 0 mm | - | - | - |
| 1777741204 | 23.89° C | 84% | 1011.3 hPa | 0 mm | - | - | - |
| 1777740304 | 23.89° C | 81% | 1010.4 hPa | 0 mm | - | - | - |
| 1777739404 | 23.89° C | 77% | 1011.1 hPa | 0 mm | - | - | - |
| 1777738504 | 23.33° C | 82% | 1009.8 hPa | 0 mm | - | - | - |
| 1777737604 | 22.78° C | 86% | 1009.9 hPa | 0 mm | - | - | - |
| 1777736705 | 22.78° C | 85% | 1010.4 hPa | 0 mm | - | - | - |
| 1777735804 | 22.78° C | 88% | 1009.9 hPa | 0 mm | - | - | - |
| 1777734904 | 22.22° C | 89% | 1010.2 hPa | 0 mm | - | - | - |
| 1777734004 | 22.22° C | 91% | 1009.1 hPa | 0 mm | - | - | - |
| 1777733104 | 22.22° C | 88% | 1010.1 hPa | 0 mm | - | - | - |
| 1777732205 | 21.67° C | 93% | 1007.5 hPa | 0 mm | - | - | - |
| 1777731304 | 21.67° C | 94% | 1009.6 hPa | 0 mm | - | - | - |
| 1777730405 | 22.22° C | 92% | 1010.3 hPa | 0 mm | - | - | - |
* Rain latest hour (hover to see other rain measurements)
** Current wind speed in m/s (hover to see current wind gust speed)